UAE9793 OERK-OEJN
Flight info
| Callsign | UAE9793 |
|---|---|
| Flight time | N/A |
| Altitude | 32000 |
| Route | DURMA G782 VEMEM |
| Aircraft | B77W/H-SDE1E2E3FGHIJ2J3J4J5M1RWXY/LB1D1 |
Departure
| Time | 2026-05-01 15:21 |
|---|---|
| Airport | King Khalid International Airport (OERK) |
Arrival
| Time | N/A |
|---|---|
| Airport | King Abdulaziz International Airport (OEJN) |
| Time | Latitude | Longitude | Altitude | Speed | Heading |
|---|---|---|---|---|---|
| 2026-05-01 15:04 | 24.96156 | 46.70405 | 2042 ft | 0 kts | 257° |
| 2026-05-01 15:10 | 24.96160 | 46.70425 | 2043 ft | 4 kts | 253° |
| 2026-05-01 15:10 | 24.96166 | 46.70483 | 2040 ft | 4 kts | 268° |
| 2026-05-01 15:10 | 24.96166 | 46.70508 | 2036 ft | 0 kts | 271° |
| 2026-05-01 15:15 | 24.96245 | 46.70446 | 2040 ft | 9 kts | 344° |
| 2026-05-01 15:16 | 24.96439 | 46.70331 | 2040 ft | 21 kts | 330° |
| 2026-05-01 15:16 | 24.96692 | 46.70168 | 2040 ft | 21 kts | 329° |
| 2026-05-01 15:17 | 24.96951 | 46.70007 | 2037 ft | 23 kts | 333° |
| 2026-05-01 15:18 | 24.97416 | 46.69746 | 2031 ft | 25 kts | 11° |
| 2026-05-01 15:18 | 24.97454 | 46.69799 | 2032 ft | 8 kts | 63° |
| 2026-05-01 15:19 | 24.97533 | 46.69967 | 2036 ft | 8 kts | 57° |
| 2026-05-01 15:19 | 24.97597 | 46.70074 | 2037 ft | 8 kts | 57° |
| 2026-05-01 15:19 | 24.97632 | 46.70133 | 2034 ft | 12 kts | 57° |
| 2026-05-01 15:20 | 24.97572 | 46.70276 | 2035 ft | 12 kts | 151° |
| 2026-05-01 15:20 | 24.97484 | 46.70330 | 2036 ft | 23 kts | 149° |
| 2026-05-01 15:20 | 24.97192 | 46.70516 | 2041 ft | 77 kts | 150° |
| 2026-05-01 15:21 | 24.96572 | 46.70907 | 2039 ft | 130 kts | 149° |
| 2026-05-01 15:21 | 24.95640 | 46.71497 | 2038 ft | 174 kts | 150° |
| 2026-05-01 15:21 | 24.94531 | 46.72172 | 2322 ft | 185 kts | 150° |
| 2026-05-01 15:21 | 24.93396 | 46.72906 | 2717 ft | 194 kts | 149° |
| 2026-05-01 15:22 | 24.90976 | 46.74189 | 3797 ft | 187 kts | 159° |
| 2026-05-01 15:22 | 24.89671 | 46.74413 | 4155 ft | 199 kts | 185° |
| 2026-05-01 15:22 | 24.88254 | 46.73967 | 4254 ft | 228 kts | 208° |
| 2026-05-01 15:23 | 24.86973 | 46.72798 | 4466 ft | 260 kts | 232° |
| 2026-05-01 15:23 | 24.86321 | 46.70861 | 5019 ft | 278 kts | 260° |
| 2026-05-01 15:23 | 24.86262 | 46.68691 | 5790 ft | 289 kts | 270° |
| 2026-05-01 15:23 | 24.86347 | 46.66469 | 6667 ft | 290 kts | 269° |
| 2026-05-01 15:24 | 24.86531 | 46.64277 | 7737 ft | 285 kts | 277° |
| 2026-05-01 15:24 | 24.87046 | 46.62185 | 8796 ft | 283 kts | 288° |
| 2026-05-01 15:24 | 24.87900 | 46.60258 | 9770 ft | 285 kts | 298° |
| 2026-05-01 15:24 | 24.89086 | 46.58495 | 10563 ft | 290 kts | 307° |
| 2026-05-01 15:25 | 24.90210 | 46.56629 | 10827 ft | 301 kts | 284° |
| 2026-05-01 15:25 | 24.90325 | 46.54296 | 11045 ft | 318 kts | 255° |
| 2026-05-01 15:25 | 24.89339 | 46.52056 | 11219 ft | 336 kts | 235° |
| 2026-05-01 15:25 | 24.87959 | 46.49866 | 11490 ft | 356 kts | 236° |
| 2026-05-01 15:26 | 24.86555 | 46.47569 | 12217 ft | 363 kts | 237° |
| 2026-05-01 15:26 | 24.85172 | 46.45263 | 13051 ft | 367 kts | 237° |
| 2026-05-01 15:26 | 24.83776 | 46.42907 | 13952 ft | 368 kts | 238° |
| 2026-05-01 15:26 | 24.82384 | 46.40534 | 14748 ft | 370 kts | 238° |
| 2026-05-01 15:27 | 24.80982 | 46.38130 | 15435 ft | 376 kts | 238° |
| 2026-05-01 15:27 | 24.79562 | 46.35686 | 16127 ft | 380 kts | 238° |
| 2026-05-01 15:27 | 24.78131 | 46.33221 | 16874 ft | 384 kts | 238° |
| 2026-05-01 15:28 | 24.75224 | 46.28211 | 18305 ft | 392 kts | 238° |
| 2026-05-01 15:28 | 24.73751 | 46.25671 | 18931 ft | 396 kts | 238° |
| 2026-05-01 15:28 | 24.72326 | 46.23217 | 19545 ft | 399 kts | 238° |
| 2026-05-01 15:29 | 24.69316 | 46.18037 | 20798 ft | 406 kts | 238° |
| 2026-05-01 15:29 | 24.67785 | 46.15405 | 21394 ft | 410 kts | 238° |
| 2026-05-01 15:29 | 24.64704 | 46.10111 | 22570 ft | 417 kts | 239° |
| 2026-05-01 15:30 | 24.61542 | 46.04684 | 23676 ft | 425 kts | 239° |
| 2026-05-01 15:31 | 24.55186 | 45.93795 | 25899 ft | 427 kts | 239° |
| 2026-05-01 15:31 | 24.51966 | 45.88287 | 26896 ft | 431 kts | 239° |
| 2026-05-01 15:32 | 24.48702 | 45.82708 | 27797 ft | 436 kts | 239° |
| 2026-05-01 15:32 | 24.45411 | 45.77086 | 28713 ft | 439 kts | 240° |
| 2026-05-01 15:33 | 24.41215 | 45.68076 | 30020 ft | 440 kts | 246° |
| 2026-05-01 15:34 | 24.37365 | 45.59118 | 31708 ft | 427 kts | 245° |